sensor_id;sensor_type;location;lat;lon;timestamp;noise_LAeq;noise_LA_min;noise_LA_max;noise_LA01;noise_LA95
48148;Laerm;29352;48.708;9.290;2022-08-03T00:02:25;56.47;52.93;67.04;;
48148;Laerm;29352;48.708;9.290;2022-08-03T00:04:51;57.42;53.14;67.90;;
48148;Laerm;29352;48.708;9.290;2022-08-03T00:07:16;57.29;53.49;73.42;;
48148;Laerm;29352;48.708;9.290;2022-08-03T00:09:42;57.17;52.88;76.51;;
48148;Laerm;29352;48.708;9.290;2022-08-03T00:12:08;54.77;52.88;60.76;;
48148;Laerm;29352;48.708;9.290;2022-08-03T00:14:33;55.69;52.82;66.29;;
48148;Laerm;29352;48.708;9.290;2022-08-03T00:16:59;55.82;53.09;63.25;;
48148;Laerm;29352;48.708;9.290;2022-08-03T00:19:24;54.91;52.82;62.50;;
48148;Laerm;29352;48.708;9.290;2022-08-03T00:21:50;54.69;52.71;59.21;;
48148;Laerm;29352;48.708;9.290;2022-08-03T00:24:15;56.00;53.09;65.86;;
48148;Laerm;29352;48.708;9.290;2022-08-03T00:26:41;56.17;53.19;66.68;;
48148;Laerm;29352;48.708;9.290;2022-08-03T00:29:06;57.04;53.34;66.36;;
48148;Laerm;29352;48.708;9.290;2022-08-03T00:31:32;55.45;52.88;67.83;;
48148;Laerm;29352;48.708;9.290;2022-08-03T00:33:57;55.01;52.93;62.39;;
48148;Laerm;29352;48.708;9.290;2022-08-03T00:36:23;57.30;53.24;76.13;;
48148;Laerm;29352;48.708;9.290;2022-08-03T00:38:48;56.66;53.04;71.69;;
48148;Laerm;29352;48.708;9.290;2022-08-03T00:41:13;57.96;53.39;77.31;;
48148;Laerm;29352;48.708;9.290;2022-08-03T00:43:39;55.56;52.98;69.62;;
48148;Laerm;29352;48.708;9.290;2022-08-03T00:46:04;56.52;52.76;73.28;;
48148;Laerm;29352;48.708;9.290;2022-08-03T00:48:30;54.97;52.76;62.40;;
48148;Laerm;29352;48.708;9.290;2022-08-03T00:50:57;56.33;53.04;65.92;;
48148;Laerm;29352;48.708;9.290;2022-08-03T00:53:23;55.30;52.58;65.04;;
48148;Laerm;29352;48.708;9.290;2022-08-03T00:55:50;56.07;52.82;73.55;;
48148;Laerm;29352;48.708;9.290;2022-08-03T00:58:15;57.06;52.82;70.20;;
48148;Laerm;29352;48.708;9.290;2022-08-03T01:00:41;57.27;52.93;72.71;;
48148;Laerm;29352;48.708;9.290;2022-08-03T01:03:09;55.49;52.85;70.51;;
48148;Laerm;29352;48.708;9.290;2022-08-03T01:05:59;55.49;52.59;69.35;;
48148;Laerm;29352;48.708;9.290;2022-08-03T01:11:54;55.39;52.47;72.03;;
48148;Laerm;29352;48.708;9.290;2022-08-03T01:14:40;55.53;52.41;72.11;;
48148;Laerm;29352;48.708;9.290;2022-08-03T01:19:57;55.21;52.88;66.93;;
48148;Laerm;29352;48.708;9.290;2022-08-03T01:25:45;56.03;52.47;71.31;;
48148;Laerm;29352;48.708;9.290;2022-08-03T01:28:35;56.42;52.41;75.54;;
48148;Laerm;29352;48.708;9.290;2022-08-03T01:31:07;56.03;52.71;71.67;;
48148;Laerm;29352;48.708;9.290;2022-08-03T01:33:40;58.78;52.29;77.15;;
48148;Laerm;29352;48.708;9.290;2022-08-03T01:36:13;57.15;52.47;73.96;;
48148;Laerm;29352;48.708;9.290;2022-08-03T01:38:53;56.27;52.76;65.75;;
48148;Laerm;29352;48.708;9.290;2022-08-03T01:41:29;56.20;52.71;72.74;;
48148;Laerm;29352;48.708;9.290;2022-08-03T01:43:58;57.62;52.65;76.52;;
48148;Laerm;29352;48.708;9.290;2022-08-03T01:46:29;59.73;52.71;75.35;;
48148;Laerm;29352;48.708;9.290;2022-08-03T01:48:58;57.24;52.53;69.90;;
48148;Laerm;29352;48.708;9.290;2022-08-03T01:51:26;57.51;52.65;80.87;;
48148;Laerm;29352;48.708;9.290;2022-08-03T01:53:54;55.91;52.41;68.67;;
48148;Laerm;29352;48.708;9.290;2022-08-03T01:56:25;56.84;52.35;74.60;;
48148;Laerm;29352;48.708;9.290;2022-08-03T01:58:56;54.57;51.89;76.42;;
48148;Laerm;29352;48.708;9.290;2022-08-03T02:01:24;54.73;51.89;66.23;;
48148;Laerm;29352;48.708;9.290;2022-08-03T02:03:53;56.17;52.59;74.29;;
48148;Laerm;29352;48.708;9.290;2022-08-03T02:06:22;55.49;52.53;69.40;;
48148;Laerm;29352;48.708;9.290;2022-08-03T02:08:53;57.14;52.76;80.62;;
48148;Laerm;29352;48.708;9.290;2022-08-03T02:11:20;55.76;52.41;73.19;;
48148;Laerm;29352;48.708;9.290;2022-08-03T02:13:49;56.80;52.35;77.36;;
48148;Laerm;29352;48.708;9.290;2022-08-03T02:16:18;55.25;52.16;72.83;;
48148;Laerm;29352;48.708;9.290;2022-08-03T02:18:47;55.60;52.41;74.82;;
48148;Laerm;29352;48.708;9.290;2022-08-03T02:21:14;55.84;51.96;76.48;;
48148;Laerm;29352;48.708;9.290;2022-08-03T02:23:40;54.56;52.03;69.82;;
48148;Laerm;29352;48.708;9.290;2022-08-03T02:26:14;54.80;51.75;68.63;;
48148;Laerm;29352;48.708;9.290;2022-08-03T02:28:48;55.37;52.09;72.40;;
48148;Laerm;29352;48.708;9.290;2022-08-03T02:31:22;55.61;52.82;74.47;;
48148;Laerm;29352;48.708;9.290;2022-08-03T02:33:55;54.11;52.22;63.44;;
48148;Laerm;29352;48.708;9.290;2022-08-03T02:36:27;54.47;52.53;66.34;;
48148;Laerm;29352;48.708;9.290;2022-08-03T02:38:58;55.82;52.09;73.26;;
48148;Laerm;29352;48.708;9.290;2022-08-03T02:41:31;54.44;52.35;63.53;;
48148;Laerm;29352;48.708;9.290;2022-08-03T02:44:06;54.04;52.16;68.67;;
48148;Laerm;29352;48.708;9.290;2022-08-03T02:46:45;55.26;51.89;70.47;;
48148;Laerm;29352;48.708;9.290;2022-08-03T02:49:16;59.48;52.29;86.14;;
48148;Laerm;29352;48.708;9.290;2022-08-03T02:51:48;55.22;52.16;73.99;;
48148;Laerm;29352;48.708;9.290;2022-08-03T02:54:17;54.53;51.82;66.25;;
48148;Laerm;29352;48.708;9.290;2022-08-03T02:56:47;54.05;51.81;67.00;;
48148;Laerm;29352;48.708;9.290;2022-08-03T02:59:17;55.12;51.82;72.50;;
48148;Laerm;29352;48.708;9.290;2022-08-03T03:01:44;55.23;52.09;74.51;;
48148;Laerm;29352;48.708;9.290;2022-08-03T03:04:11;55.00;52.29;73.58;;
48148;Laerm;29352;48.708;9.290;2022-08-03T03:06:39;54.67;52.03;69.07;;
48148;Laerm;29352;48.708;9.290;2022-08-03T03:09:07;54.11;51.96;66.88;;
48148;Laerm;29352;48.708;9.290;2022-08-03T03:11:37;54.65;51.82;70.16;;
48148;Laerm;29352;48.708;9.290;2022-08-03T03:14:04;55.12;51.68;72.99;;
48148;Laerm;29352;48.708;9.290;2022-08-03T03:16:32;54.77;52.09;77.67;;
48148;Laerm;29352;48.708;9.290;2022-08-03T03:19:00;55.72;52.22;72.76;;
48148;Laerm;29352;48.708;9.290;2022-08-03T03:21:29;53.99;51.75;63.46;;
48148;Laerm;29352;48.708;9.290;2022-08-03T03:23:58;54.35;51.75;69.51;;
48148;Laerm;29352;48.708;9.290;2022-08-03T03:26:24;54.82;51.89;73.92;;
48148;Laerm;29352;48.708;9.290;2022-08-03T03:28:51;55.33;52.29;70.93;;
48148;Laerm;29352;48.708;9.290;2022-08-03T03:31:16;56.68;52.03;80.92;;
48148;Laerm;29352;48.708;9.290;2022-08-03T03:33:42;55.37;51.89;69.96;;
48148;Laerm;29352;48.708;9.290;2022-08-03T03:36:09;56.49;52.09;80.11;;
48148;Laerm;29352;48.708;9.290;2022-08-03T03:38:35;56.30;51.82;77.05;;
48148;Laerm;29352;48.708;9.290;2022-08-03T03:41:01;56.48;51.89;74.16;;
48148;Laerm;29352;48.708;9.290;2022-08-03T03:43:27;55.00;52.03;74.91;;
48148;Laerm;29352;48.708;9.290;2022-08-03T03:45:54;54.23;51.75;66.54;;
48148;Laerm;29352;48.708;9.290;2022-08-03T03:48:23;54.73;51.96;80.69;;
48148;Laerm;29352;48.708;9.290;2022-08-03T03:50:49;54.33;51.68;72.16;;
48148;Laerm;29352;48.708;9.290;2022-08-03T03:53:15;54.50;51.82;71.62;;
48148;Laerm;29352;48.708;9.290;2022-08-03T03:55:41;54.85;51.89;71.00;;
48148;Laerm;29352;48.708;9.290;2022-08-03T03:58:07;54.31;51.46;68.86;;
48148;Laerm;29352;48.708;9.290;2022-08-03T04:00:33;54.88;51.68;72.96;;
48148;Laerm;29352;48.708;9.290;2022-08-03T04:02:59;53.94;51.61;68.03;;
48148;Laerm;29352;48.708;9.290;2022-08-03T04:05:25;54.22;51.53;71.45;;
48148;Laerm;29352;48.708;9.290;2022-08-03T04:08:15;54.09;51.68;64.43;;
48148;Laerm;29352;48.708;9.290;2022-08-03T04:14:08;54.14;51.82;71.66;;
48148;Laerm;29352;48.708;9.290;2022-08-03T04:16:40;54.29;51.75;68.59;;
48148;Laerm;29352;48.708;9.290;2022-08-03T04:19:20;54.63;51.30;71.65;;
48148;Laerm;29352;48.708;9.290;2022-08-03T04:21:54;53.19;51.46;59.63;;
48148;Laerm;29352;48.708;9.290;2022-08-03T04:24:26;53.69;51.46;67.37;;
48148;Laerm;29352;48.708;9.290;2022-08-03T04:26:56;56.99;51.61;73.09;;
48148;Laerm;29352;48.708;9.290;2022-08-03T04:29:25;56.08;52.35;76.28;;
48148;Laerm;29352;48.708;9.290;2022-08-03T04:31:57;54.83;52.35;67.08;;
48148;Laerm;29352;48.708;9.290;2022-08-03T04:34:24;55.01;52.41;66.39;;
48148;Laerm;29352;48.708;9.290;2022-08-03T04:36:57;54.73;52.82;62.79;;
48148;Laerm;29352;48.708;9.290;2022-08-03T04:39:26;54.19;52.47;64.25;;
48148;Laerm;29352;48.708;9.290;2022-08-03T04:42:03;54.94;52.65;72.77;;
48148;Laerm;29352;48.708;9.290;2022-08-03T04:44:36;54.95;52.71;78.53;;
48148;Laerm;29352;48.708;9.290;2022-08-03T04:47:02;55.77;52.41;74.63;;
48148;Laerm;29352;48.708;9.290;2022-08-03T04:49:29;54.60;52.82;70.72;;
48148;Laerm;29352;48.708;9.290;2022-08-03T04:51:56;54.23;52.35;65.07;;
48148;Laerm;29352;48.708;9.290;2022-08-03T04:54:21;55.42;52.16;69.95;;
48148;Laerm;29352;48.708;9.290;2022-08-03T04:56:47;55.51;52.22;67.18;;
48148;Laerm;29352;48.708;9.290;2022-08-03T04:59:12;54.78;52.22;68.10;;
48148;Laerm;29352;48.708;9.290;2022-08-03T05:01:39;54.81;52.16;68.01;;
48148;Laerm;29352;48.708;9.290;2022-08-03T05:04:06;54.89;52.09;69.87;;
48148;Laerm;29352;48.708;9.290;2022-08-03T05:06:31;53.92;52.16;68.12;;
48148;Laerm;29352;48.708;9.290;2022-08-03T05:08:57;53.58;52.22;62.64;;
48148;Laerm;29352;48.708;9.290;2022-08-03T05:11:22;53.45;52.16;59.58;;
48148;Laerm;29352;48.708;9.290;2022-08-03T05:13:48;53.51;52.29;57.67;;
48148;Laerm;29352;48.708;9.290;2022-08-03T05:16:14;53.49;52.22;60.78;;
48148;Laerm;29352;48.708;9.290;2022-08-03T05:18:41;53.70;51.96;61.70;;
48148;Laerm;29352;48.708;9.290;2022-08-03T05:21:08;53.37;52.16;58.58;;
48148;Laerm;29352;48.708;9.290;2022-08-03T05:23:34;53.27;51.96;59.06;;
48148;Laerm;29352;48.708;9.290;2022-08-03T05:26:00;53.26;51.82;56.05;;
48148;Laerm;29352;48.708;9.290;2022-08-03T05:28:25;53.27;52.09;56.96;;
48148;Laerm;29352;48.708;9.290;2022-08-03T05:30:51;53.22;52.16;55.42;;
48148;Laerm;29352;48.708;9.290;2022-08-03T05:33:16;53.25;52.03;54.73;;
48148;Laerm;29352;48.708;9.290;2022-08-03T05:35:42;53.29;52.22;56.59;;
48148;Laerm;29352;48.708;9.290;2022-08-03T05:38:08;53.24;52.16;56.35;;
48148;Laerm;29352;48.708;9.290;2022-08-03T05:40:33;53.23;52.03;54.31;;
48148;Laerm;29352;48.708;9.290;2022-08-03T05:43:00;53.25;52.03;55.80;;
48148;Laerm;29352;48.708;9.290;2022-08-03T05:45:26;53.28;52.16;55.75;;
48148;Laerm;29352;48.708;9.290;2022-08-03T05:47:51;53.29;52.16;54.42;;
48148;Laerm;29352;48.708;9.290;2022-08-03T05:50:18;53.30;52.03;54.39;;
48148;Laerm;29352;48.708;9.290;2022-08-03T05:52:44;53.34;52.29;54.59;;
48148;Laerm;29352;48.708;9.290;2022-08-03T05:55:12;53.34;52.29;54.39;;
48148;Laerm;29352;48.708;9.290;2022-08-03T05:57:39;53.35;51.96;54.39;;
48148;Laerm;29352;48.708;9.290;2022-08-03T06:00:10;53.32;52.22;54.31;;
48148;Laerm;29352;48.708;9.290;2022-08-03T06:02:36;53.33;52.29;54.31;;
48148;Laerm;29352;48.708;9.290;2022-08-03T06:05:03;53.34;52.16;54.39;;
48148;Laerm;29352;48.708;9.290;2022-08-03T06:07:28;53.32;52.29;54.51;;
48148;Laerm;29352;48.708;9.290;2022-08-03T06:09:54;53.30;52.24;54.27;;
48148;Laerm;29352;48.708;9.290;2022-08-03T06:12:20;53.31;52.09;54.39;;
48148;Laerm;29352;48.708;9.290;2022-08-03T06:14:45;53.31;52.09;54.35;;
48148;Laerm;29352;48.708;9.290;2022-08-03T06:17:11;53.32;52.29;54.35;;
48148;Laerm;29352;48.708;9.290;2022-08-03T06:19:36;53.31;52.22;54.27;;
48148;Laerm;29352;48.708;9.290;2022-08-03T06:22:03;53.29;52.24;54.23;;
48148;Laerm;29352;48.708;9.290;2022-08-03T06:24:29;53.27;52.09;54.31;;
48148;Laerm;29352;48.708;9.290;2022-08-03T06:26:55;53.26;52.16;54.19;;
48148;Laerm;29352;48.708;9.290;2022-08-03T06:29:20;53.21;51.89;54.19;;
48148;Laerm;29352;48.708;9.290;2022-08-03T06:31:46;53.19;51.89;54.27;;
48148;Laerm;29352;48.708;9.290;2022-08-03T06:34:11;53.17;52.03;54.39;;
48148;Laerm;29352;48.708;9.290;2022-08-03T06:36:37;53.13;52.03;54.23;;
48148;Laerm;29352;48.708;9.290;2022-08-03T06:39:05;53.08;51.61;54.15;;
48148;Laerm;29352;48.708;9.290;2022-08-03T06:41:30;53.05;51.75;53.94;;
48148;Laerm;29352;48.708;9.290;2022-08-03T06:43:56;53.00;51.82;58.45;;
48148;Laerm;29352;48.708;9.290;2022-08-03T06:46:21;52.96;51.53;53.99;;
48148;Laerm;29352;48.708;9.290;2022-08-03T06:48:47;52.91;51.82;53.94;;
48148;Laerm;29352;48.708;9.290;2022-08-03T06:51:13;52.90;51.68;54.39;;
48148;Laerm;29352;48.708;9.290;2022-08-03T06:53:39;52.87;51.68;54.07;;
48148;Laerm;29352;48.708;9.290;2022-08-03T06:56:06;52.93;51.61;54.01;;
48148;Laerm;29352;48.708;9.290;2022-08-03T06:58:32;52.88;51.53;53.86;;
48148;Laerm;29352;48.708;9.290;2022-08-03T07:00:59;52.92;51.61;53.93;;
48148;Laerm;29352;48.708;9.290;2022-08-03T07:03:24;52.96;51.75;54.03;;
48148;Laerm;29352;48.708;9.290;2022-08-03T07:05:50;52.94;51.53;54.19;;
48148;Laerm;29352;48.708;9.290;2022-08-03T07:08:17;52.85;51.53;53.94;;
48148;Laerm;29352;48.708;9.290;2022-08-03T07:10:44;52.84;51.38;54.01;;
48148;Laerm;29352;48.708;9.290;2022-08-03T07:13:10;52.79;51.53;53.99;;
48148;Laerm;29352;48.708;9.290;2022-08-03T07:15:36;52.79;51.53;53.86;;
48148;Laerm;29352;48.708;9.290;2022-08-03T07:18:03;52.80;51.48;53.86;;
48148;Laerm;29352;48.708;9.290;2022-08-03T07:20:28;52.80;51.75;54.31;;
48148;Laerm;29352;48.708;9.290;2022-08-03T07:22:54;52.75;51.46;53.90;;
48148;Laerm;29352;48.708;9.290;2022-08-03T07:25:20;52.72;51.53;53.86;;
48148;Laerm;29352;48.708;9.290;2022-08-03T07:27:47;52.66;51.61;53.72;;
48148;Laerm;29352;48.708;9.290;2022-08-03T07:30:14;52.64;51.22;53.68;;
48148;Laerm;29352;48.708;9.290;2022-08-03T07:32:41;52.59;50.98;53.68;;
48148;Laerm;29352;48.708;9.290;2022-08-03T07:35:08;52.60;51.30;53.72;;
48148;Laerm;29352;48.708;9.290;2022-08-03T07:37:36;52.55;51.38;53.72;;
48148;Laerm;29352;48.708;9.290;2022-08-03T07:40:04;52.56;51.46;53.63;;
48148;Laerm;29352;48.708;9.290;2022-08-03T07:42:30;52.56;51.14;53.58;;
48148;Laerm;29352;48.708;9.290;2022-08-03T07:44:58;52.59;51.38;53.58;;
48148;Laerm;29352;48.708;9.290;2022-08-03T07:47:28;52.61;51.22;53.72;;
48148;Laerm;29352;48.708;9.290;2022-08-03T07:49:54;52.67;51.46;53.81;;
48148;Laerm;29352;48.708;9.290;2022-08-03T07:52:20;52.68;51.53;53.58;;
48148;Laerm;29352;48.708;9.290;2022-08-03T07:55:06;52.63;51.61;53.72;;
48148;Laerm;29352;48.708;9.290;2022-08-03T07:57:32;52.62;51.46;53.60;;
48148;Laerm;29352;48.708;9.290;2022-08-03T07:59:58;52.71;51.53;53.77;;
48148;Laerm;29352;48.708;9.290;2022-08-03T08:02:24;52.65;51.46;53.58;;
48148;Laerm;29352;48.708;9.290;2022-08-03T08:04:50;52.66;51.30;53.86;;
48148;Laerm;29352;48.708;9.290;2022-08-03T08:07:15;52.72;51.38;53.72;;
48148;Laerm;29352;48.708;9.290;2022-08-03T08:09:41;52.76;51.53;53.94;;
48148;Laerm;29352;48.708;9.290;2022-08-03T08:12:06;52.70;51.61;53.72;;
48148;Laerm;29352;48.708;9.290;2022-08-03T08:14:34;52.70;51.53;53.63;;
48148;Laerm;29352;48.708;9.290;2022-08-03T08:16:59;52.69;51.22;53.63;;
48148;Laerm;29352;48.708;9.290;2022-08-03T08:19:25;52.75;51.53;53.68;;
48148;Laerm;29352;48.708;9.290;2022-08-03T08:21:50;52.77;51.53;53.77;;
48148;Laerm;29352;48.708;9.290;2022-08-03T08:24:16;52.84;51.38;54.03;;
48148;Laerm;29352;48.708;9.290;2022-08-03T08:26:41;52.86;51.75;53.90;;
48148;Laerm;29352;48.708;9.290;2022-08-03T08:29:07;52.81;51.75;53.86;;
48148;Laerm;29352;48.708;9.290;2022-08-03T08:31:32;52.83;51.61;53.99;;
48148;Laerm;29352;48.708;9.290;2022-08-03T08:33:58;52.87;51.75;53.90;;
48148;Laerm;29352;48.708;9.290;2022-08-03T08:36:24;52.83;51.68;53.86;;
48148;Laerm;29352;48.708;9.290;2022-08-03T08:38:49;52.84;51.53;53.99;;
48148;Laerm;29352;48.708;9.290;2022-08-03T08:41:15;52.84;51.68;53.94;;
48148;Laerm;29352;48.708;9.290;2022-08-03T08:43:41;52.83;51.68;53.94;;
48148;Laerm;29352;48.708;9.290;2022-08-03T08:46:11;52.84;51.61;53.99;;
48148;Laerm;29352;48.708;9.290;2022-08-03T08:48:45;52.82;51.68;53.90;;
48148;Laerm;29352;48.708;9.290;2022-08-03T08:51:11;52.81;51.61;53.86;;
48148;Laerm;29352;48.708;9.290;2022-08-03T08:53:43;52.83;51.61;53.90;;
48148;Laerm;29352;48.708;9.290;2022-08-03T08:56:15;52.78;51.75;53.81;;
48148;Laerm;29352;48.708;9.290;2022-08-03T08:58:51;52.76;51.46;53.77;;
48148;Laerm;29352;48.708;9.290;2022-08-03T09:01:18;52.72;51.38;53.81;;
48148;Laerm;29352;48.708;9.290;2022-08-03T09:03:45;52.73;51.61;53.81;;
48148;Laerm;29352;48.708;9.290;2022-08-03T09:06:11;52.73;51.38;53.77;;
48148;Laerm;29352;48.708;9.290;2022-08-03T09:08:37;52.72;51.38;53.76;;
48148;Laerm;29352;48.708;9.290;2022-08-03T09:11:02;52.71;51.30;53.81;;
48148;Laerm;29352;48.708;9.290;2022-08-03T09:13:28;52.66;51.22;53.77;;
48148;Laerm;29352;48.708;9.290;2022-08-03T09:16:18;52.68;50.96;53.99;;
48148;Laerm;29352;48.708;9.290;2022-08-03T09:18:53;52.68;51.22;53.77;;
48148;Laerm;29352;48.708;9.290;2022-08-03T09:21:26;52.61;51.22;54.07;;
48148;Laerm;29352;48.708;9.290;2022-08-03T09:23:56;52.51;50.23;54.87;;
48148;Laerm;29352;48.708;9.290;2022-08-03T09:26:28;52.47;50.98;54.35;;
48148;Laerm;29352;48.708;9.290;2022-08-03T09:29:03;52.39;50.80;53.90;;
48148;Laerm;29352;48.708;9.290;2022-08-03T09:31:39;52.41;50.80;53.54;;
48148;Laerm;29352;48.708;9.290;2022-08-03T09:34:08;52.37;50.98;53.54;;
48148;Laerm;29352;48.708;9.290;2022-08-03T09:41:48;52.38;51.06;53.77;;
48148;Laerm;29352;48.708;9.290;2022-08-03T09:44:39;52.52;50.98;53.55;;
48148;Laerm;29352;48.708;9.290;2022-08-03T09:47:14;52.57;51.30;56.15;;
48148;Laerm;29352;48.708;9.290;2022-08-03T09:49:41;52.53;51.14;53.63;;
48148;Laerm;29352;48.708;9.290;2022-08-03T09:52:20;52.52;50.98;53.77;;
48148;Laerm;29352;48.708;9.290;2022-08-03T09:54:52;52.52;51.30;53.68;;
48148;Laerm;29352;48.708;9.290;2022-08-03T09:57:24;52.45;50.98;53.54;;
48148;Laerm;29352;48.708;9.290;2022-08-03T09:59:52;52.41;50.89;53.54;;
48148;Laerm;29352;48.708;9.290;2022-08-03T10:02:24;52.47;51.06;53.58;;
48148;Laerm;29352;48.708;9.290;2022-08-03T10:04:52;52.35;50.71;53.63;;
48148;Laerm;29352;48.708;9.290;2022-08-03T10:07:23;52.29;50.71;53.54;;
48148;Laerm;29352;48.708;9.290;2022-08-03T10:10:00;52.39;51.06;53.54;;
48148;Laerm;29352;48.708;9.290;2022-08-03T10:12:27;52.33;50.89;53.44;;
48148;Laerm;29352;48.708;9.290;2022-08-03T10:14:54;52.46;51.14;53.58;;
48148;Laerm;29352;48.708;9.290;2022-08-03T10:17:22;52.44;51.06;54.23;;
48148;Laerm;29352;48.708;9.290;2022-08-03T10:19:48;52.22;50.62;53.54;;
48148;Laerm;29352;48.708;9.290;2022-08-03T10:22:27;52.25;50.80;53.54;;
48148;Laerm;29352;48.708;9.290;2022-08-03T10:25:08;52.16;50.33;53.29;;
48148;Laerm;29352;48.708;9.290;2022-08-03T10:27:38;52.07;50.62;53.39;;
48148;Laerm;29352;48.708;9.290;2022-08-03T10:30:10;51.96;50.53;53.24;;
48148;Laerm;29352;48.708;9.290;2022-08-03T10:32:48;52.05;50.53;53.24;;
48148;Laerm;29352;48.708;9.290;2022-08-03T10:35:19;51.91;50.33;53.14;;
48148;Laerm;29352;48.708;9.290;2022-08-03T10:37:55;51.83;50.03;53.14;;
48148;Laerm;29352;48.708;9.290;2022-08-03T10:40:23;51.79;49.81;53.04;;
48148;Laerm;29352;48.708;9.290;2022-08-03T10:42:58;51.79;50.13;53.09;;
48148;Laerm;29352;48.708;9.290;2022-08-03T10:45:27;51.83;50.33;53.14;;
48148;Laerm;29352;48.708;9.290;2022-08-03T10:47:58;51.90;50.33;53.29;;
48148;Laerm;29352;48.708;9.290;2022-08-03T10:50:24;51.95;50.23;53.24;;
48148;Laerm;29352;48.708;9.290;2022-08-03T10:53:01;51.98;50.33;53.29;;
48148;Laerm;29352;48.708;9.290;2022-08-03T11:01:10;51.72;49.81;53.14;;
48148;Laerm;29352;48.708;9.290;2022-08-03T11:06:31;51.72;50.03;53.24;;
48148;Laerm;29352;48.708;9.290;2022-08-03T11:11:36;51.96;50.53;53.19;;
48148;Laerm;29352;48.708;9.290;2022-08-03T11:14:26;51.85;49.99;53.29;;
48148;Laerm;29352;48.708;9.290;2022-08-03T11:17:07;51.99;50.43;53.29;;
48148;Laerm;29352;48.708;9.290;2022-08-03T11:19:48;52.09;50.08;55.04;;
48148;Laerm;29352;48.708;9.290;2022-08-03T11:22:16;51.96;50.33;53.14;;
48148;Laerm;29352;48.708;9.290;2022-08-03T11:30:04;52.09;50.33;53.34;;
48148;Laerm;29352;48.708;9.290;2022-08-03T11:35:29;52.25;50.62;53.29;;
48148;Laerm;29352;48.708;9.290;2022-08-03T11:40:53;52.32;50.80;53.54;;
48148;Laerm;29352;48.708;9.290;2022-08-03T11:46:10;52.19;50.43;53.44;;
48148;Laerm;29352;48.708;9.290;2022-08-03T11:48:49;52.10;50.62;53.34;;
48148;Laerm;29352;48.708;9.290;2022-08-03T11:51:26;52.14;50.23;58.25;;
48148;Laerm;29352;48.708;9.290;2022-08-03T11:54:04;52.20;50.13;53.29;;
48148;Laerm;29352;48.708;9.290;2022-08-03T11:56:48;52.09;50.33;53.37;;
48148;Laerm;29352;48.708;9.290;2022-08-03T11:59:15;51.86;50.13;53.39;;
48148;Laerm;29352;48.708;9.290;2022-08-03T12:01:42;51.88;49.70;53.19;;
48148;Laerm;29352;48.708;9.290;2022-08-03T12:04:10;52.04;50.62;53.29;;
48148;Laerm;29352;48.708;9.290;2022-08-03T12:06:36;52.23;50.80;57.00;;
48148;Laerm;29352;48.708;9.290;2022-08-03T12:09:20;52.08;50.43;53.77;;
48148;Laerm;29352;48.708;9.290;2022-08-03T12:11:50;51.97;50.43;53.09;;
48148;Laerm;29352;48.708;9.290;2022-08-03T12:14:17;52.05;50.33;53.29;;
48148;Laerm;29352;48.708;9.290;2022-08-03T12:16:47;51.98;50.03;53.24;;
48148;Laerm;29352;48.708;9.290;2022-08-03T12:19:13;52.06;50.33;53.34;;
48148;Laerm;29352;48.708;9.290;2022-08-03T12:21:49;52.20;50.53;53.29;;
48148;Laerm;29352;48.708;9.290;2022-08-03T12:24:16;52.22;50.71;53.34;;
48148;Laerm;29352;48.708;9.290;2022-08-03T12:26:49;52.20;50.80;53.24;;
48148;Laerm;29352;48.708;9.290;2022-08-03T12:29:20;52.20;50.62;53.54;;
48148;Laerm;29352;48.708;9.290;2022-08-03T12:31:47;52.15;50.71;53.97;;
48148;Laerm;29352;48.708;9.290;2022-08-03T12:34:13;52.26;50.80;53.44;;
48148;Laerm;29352;48.708;9.290;2022-08-03T12:36:51;52.30;50.80;53.81;;
48148;Laerm;29352;48.708;9.290;2022-08-03T12:39:23;52.36;50.80;53.77;;
48148;Laerm;29352;48.708;9.290;2022-08-03T12:41:53;52.38;51.06;53.39;;
48148;Laerm;29352;48.708;9.290;2022-08-03T12:44:30;52.30;50.98;53.39;;
48148;Laerm;29352;48.708;9.290;2022-08-03T12:46:57;52.09;50.71;53.34;;
48148;Laerm;29352;48.708;9.290;2022-08-03T12:49:24;51.99;50.43;53.44;;
48148;Laerm;29352;48.708;9.290;2022-08-03T12:54:20;51.96;50.23;53.44;;
48148;Laerm;29352;48.708;9.290;2022-08-03T12:57:06;52.00;50.23;53.24;;
48148;Laerm;29352;48.708;9.290;2022-08-03T12:59:39;52.29;50.71;53.54;;
48148;Laerm;29352;48.708;9.290;2022-08-03T13:02:24;52.23;50.62;53.54;;
48148;Laerm;29352;48.708;9.290;2022-08-03T13:04:52;52.23;50.53;53.34;;
48148;Laerm;29352;48.708;9.290;2022-08-03T13:07:20;52.31;50.89;53.54;;
48148;Laerm;29352;48.708;9.290;2022-08-03T13:12:15;52.27;50.88;53.34;;
48148;Laerm;29352;48.708;9.290;2022-08-03T13:14:46;52.25;50.62;53.34;;
48148;Laerm;29352;48.708;9.290;2022-08-03T13:17:12;52.16;50.80;53.29;;
48148;Laerm;29352;48.708;9.290;2022-08-03T13:19:39;52.07;50.43;53.49;;
48148;Laerm;29352;48.708;9.290;2022-08-03T13:22:23;52.14;50.62;53.39;;
48148;Laerm;29352;48.708;9.290;2022-08-03T13:24:52;52.03;50.53;53.34;;
48148;Laerm;29352;48.708;9.290;2022-08-03T13:27:20;51.92;50.23;53.34;;
48148;Laerm;29352;48.708;9.290;2022-08-03T13:29:45;52.15;50.43;53.39;;
48148;Laerm;29352;48.708;9.290;2022-08-03T13:32:11;52.05;50.43;53.34;;
48148;Laerm;29352;48.708;9.290;2022-08-03T13:34:36;52.30;50.98;53.49;;
48148;Laerm;29352;48.708;9.290;2022-08-03T13:37:02;52.22;50.43;53.54;;
48148;Laerm;29352;48.708;9.290;2022-08-03T13:39:28;52.29;50.89;53.72;;
48148;Laerm;29352;48.708;9.290;2022-08-03T13:41:54;52.32;50.98;53.44;;
48148;Laerm;29352;48.708;9.290;2022-08-03T13:44:19;52.27;50.71;53.44;;
48148;Laerm;29352;48.708;9.290;2022-08-03T13:46:46;52.29;50.96;53.49;;
48148;Laerm;29352;48.708;9.290;2022-08-03T13:49:11;52.37;51.06;53.39;;
48148;Laerm;29352;48.708;9.290;2022-08-03T13:51:37;52.38;51.22;53.39;;
48148;Laerm;29352;48.708;9.290;2022-08-03T13:54:03;52.34;50.89;53.34;;
48148;Laerm;29352;48.708;9.290;2022-08-03T13:56:30;52.35;51.06;53.34;;
48148;Laerm;29352;48.708;9.290;2022-08-03T13:58:57;52.34;51.22;53.49;;
48148;Laerm;29352;48.708;9.290;2022-08-03T14:01:24;52.30;50.98;53.39;;
48148;Laerm;29352;48.708;9.290;2022-08-03T14:03:51;52.31;51.06;53.54;;
48148;Laerm;29352;48.708;9.290;2022-08-03T14:06:19;52.36;50.89;53.39;;
48148;Laerm;29352;48.708;9.290;2022-08-03T14:08:45;52.34;51.14;53.49;;
48148;Laerm;29352;48.708;9.290;2022-08-03T14:11:13;52.32;51.06;53.54;;
48148;Laerm;29352;48.708;9.290;2022-08-03T14:13:38;52.38;51.22;53.54;;
48148;Laerm;29352;48.708;9.290;2022-08-03T14:16:04;52.34;50.96;53.39;;
48148;Laerm;29352;48.708;9.290;2022-08-03T14:18:30;52.30;50.89;53.39;;
48148;Laerm;29352;48.708;9.290;2022-08-03T14:20:57;52.35;51.06;53.29;;
48148;Laerm;29352;48.708;9.290;2022-08-03T14:23:23;52.39;51.06;53.58;;
48148;Laerm;29352;48.708;9.290;2022-08-03T14:25:48;52.43;51.14;53.63;;
48148;Laerm;29352;48.708;9.290;2022-08-03T14:28:15;52.45;51.14;53.58;;
48148;Laerm;29352;48.708;9.290;2022-08-03T14:30:40;52.45;51.22;53.54;;
48148;Laerm;29352;48.708;9.290;2022-08-03T14:33:06;52.45;51.14;53.54;;
48148;Laerm;29352;48.708;9.290;2022-08-03T14:35:31;52.44;51.14;53.63;;
48148;Laerm;29352;48.708;9.290;2022-08-03T14:37:56;52.46;51.22;53.49;;
48148;Laerm;29352;48.708;9.290;2022-08-03T14:40:22;52.45;51.06;53.54;;
48148;Laerm;29352;48.708;9.290;2022-08-03T14:42:47;52.44;51.14;53.58;;